createdAt,value
2023-01-18T00:29:42.246Z,0
2023-01-18T00:30:22.548Z,0
2023-01-18T00:31:03.071Z,0
2023-01-18T00:31:43.695Z,0
2023-01-18T00:32:24.130Z,0
2023-01-18T00:33:04.617Z,0
2023-01-18T00:33:45.126Z,0
2023-01-18T00:34:25.673Z,0
2023-01-18T00:35:06.178Z,0
2023-01-18T00:41:51.838Z,0
2023-01-18T00:42:32.327Z,0
2023-01-18T00:43:12.814Z,0
2023-01-18T00:43:53.321Z,0
2023-01-18T00:44:33.876Z,0
2023-01-18T00:45:14.406Z,0
2023-01-18T00:45:54.963Z,0
2023-01-18T00:46:35.401Z,0
2023-01-18T00:47:15.883Z,0
2023-01-18T00:47:56.428Z,0
2023-01-18T00:54:39.062Z,0
2023-01-18T00:55:19.544Z,0
2023-01-18T00:56:00.106Z,0
2023-01-18T00:56:40.600Z,0
2023-01-18T00:58:53.363Z,0
2023-01-18T00:59:33.829Z,0
2023-01-18T01:00:14.376Z,0
2023-01-18T01:00:54.961Z,0
2023-01-18T01:01:35.433Z,0
2023-01-18T01:02:15.916Z,0
2023-01-18T01:02:56.786Z,0
2023-01-18T01:03:36.827Z,0
2023-01-18T01:04:17.308Z,0
2023-01-18T01:04:57.812Z,0
2023-01-18T01:05:38.321Z,0
2023-01-18T01:10:38.334Z,0
2023-01-18T01:11:18.850Z,0
2023-01-18T01:11:59.359Z,0
2023-01-18T01:12:39.838Z,0
2023-01-18T01:13:20.357Z,0
2023-01-18T01:14:00.878Z,0
2023-01-18T01:14:41.323Z,0
2023-01-18T01:15:21.849Z,0
2023-01-18T01:16:02.386Z,0
2023-01-18T01:16:43.035Z,0
2023-01-18T01:24:08.365Z,0
2023-01-18T01:24:48.870Z,0
2023-01-18T01:25:29.369Z,0
2023-01-18T01:26:09.868Z,0
2023-01-18T01:26:50.387Z,0
2023-01-18T01:27:30.838Z,0
2023-01-18T01:28:11.317Z,0
2023-01-18T01:28:51.812Z,0
2023-01-18T01:29:32.339Z,0
2023-01-18T01:30:53.397Z,0
2023-01-18T01:35:53.529Z,0
2023-01-18T01:36:33.949Z,0
2023-01-18T01:37:14.357Z,0
2023-01-18T01:37:54.870Z,0
2023-01-18T01:38:35.385Z,0
2023-01-18T01:39:15.898Z,0
2023-01-18T01:39:56.491Z,0
2023-01-18T01:40:36.891Z,0
2023-01-18T01:41:17.411Z,0
2023-01-18T01:41:58.100Z,0
2023-01-18T01:48:43.160Z,0
2023-01-18T01:49:23.610Z,0
2023-01-18T01:50:04.084Z,0
2023-01-18T01:50:44.547Z,0
2023-01-18T01:51:25.057Z,0
2023-01-18T01:52:05.583Z,0
2023-01-18T01:52:46.134Z,0
2023-01-18T01:53:26.585Z,0
2023-01-18T01:54:07.078Z,0
2023-01-18T01:54:47.647Z,0
2023-01-18T01:55:28.161Z,0
2023-01-18T02:02:13.170Z,0
2023-01-18T02:02:53.624Z,0
2023-01-18T02:03:34.081Z,0
2023-01-18T02:04:14.620Z,0
2023-01-18T02:04:55.125Z,0
2023-01-18T02:05:36.209Z,0
2023-01-18T02:06:16.769Z,0
2023-01-18T02:06:57.289Z,0
2023-01-18T02:07:37.787Z,0
2023-01-18T02:15:03.250Z,0
2023-01-18T02:15:43.707Z,0
2023-01-18T02:16:24.255Z,0
2023-01-18T02:17:04.736Z,0
2023-01-18T02:17:45.269Z,0
2023-01-18T02:18:25.679Z,0
2023-01-18T02:19:06.176Z,0
2023-01-18T02:19:46.648Z,0
2023-01-18T02:20:27.195Z,0
2023-01-18T02:21:07.659Z,0
2023-01-18T02:21:48.224Z,0
2023-01-18T02:28:33.260Z,0
2023-01-18T02:29:13.742Z,0
2023-01-18T02:29:54.263Z,0
2023-01-18T02:30:34.748Z,0
2023-01-18T02:31:15.218Z,0
2023-01-18T02:31:55.726Z,0
2023-01-18T02:32:36.149Z,0
2023-01-18T02:33:16.664Z,0
2023-01-18T02:33:57.117Z,0
2023-01-18T02:34:37.585Z,0
2023-01-18T02:35:18.068Z,0
2023-01-18T02:42:43.472Z,0
2023-01-18T02:43:23.970Z,0
2023-01-18T02:44:04.471Z,0
2023-01-18T02:44:44.944Z,0
2023-01-18T02:45:25.417Z,0
2023-01-18T02:46:05.979Z,0
2023-01-18T02:46:46.376Z,0
2023-01-18T02:47:26.889Z,0
2023-01-18T02:48:07.467Z,0
2023-01-18T02:48:47.984Z,0
2023-01-18T02:49:28.405Z,0
2023-01-18T02:56:13.392Z,0
2023-01-18T02:56:53.875Z,0
2023-01-18T02:57:34.379Z,0
2023-01-18T02:58:14.839Z,0
2023-01-18T02:58:55.342Z,0
2023-01-18T02:59:35.798Z,0
2023-01-18T03:00:16.257Z,0
2023-01-18T03:00:56.811Z,0
2023-01-18T03:01:37.332Z,0
2023-01-18T03:02:17.821Z,0
2023-01-18T03:02:58.724Z,0
2023-01-18T03:06:37.368Z,0
2023-01-18T03:07:17.815Z,0
2023-01-18T03:07:58.298Z,0
2023-01-18T03:08:38.782Z,0
2023-01-18T03:09:19.288Z,0
2023-01-18T03:09:59.814Z,0
2023-01-18T03:10:40.286Z,0
2023-01-18T03:11:20.828Z,0
2023-01-18T03:12:01.350Z,0
2023-01-18T03:12:41.829Z,0
2023-01-18T03:13:22.309Z,0
2023-01-18T03:20:07.662Z,0
2023-01-18T03:20:47.993Z,0
2023-01-18T03:21:28.515Z,0
2023-01-18T03:22:09.082Z,0
2023-01-18T03:22:49.520Z,0
2023-01-18T03:23:30.028Z,0
2023-01-18T03:24:10.534Z,0
2023-01-18T03:24:50.984Z,0
2023-01-18T03:25:31.480Z,0
2023-01-18T03:34:54.759Z,0
2023-01-18T03:35:35.207Z,0
2023-01-18T03:36:15.707Z,0
2023-01-18T03:36:56.214Z,0
2023-01-18T03:37:36.681Z,0
2023-01-18T03:38:17.723Z,0
2023-01-18T03:38:58.192Z,0
2023-01-18T03:39:38.742Z,0
2023-01-18T03:40:19.226Z,0
2023-01-18T03:40:59.716Z,0
2023-01-18T03:47:21.243Z,0
2023-01-18T03:48:01.772Z,0
2023-01-18T03:48:42.252Z,0
2023-01-18T03:49:22.795Z,0
2023-01-18T03:50:03.284Z,0
2023-01-18T03:50:43.783Z,0
2023-01-18T03:51:24.262Z,0
2023-01-18T03:52:04.806Z,0
2023-01-18T03:52:45.344Z,0
2023-01-18T03:53:25.829Z,0
2023-01-18T03:54:06.266Z,0
2023-01-18T03:57:47.277Z,0
2023-01-18T03:58:28.334Z,0
2023-01-18T03:59:09.310Z,0
2023-01-18T03:59:50.305Z,0
2023-01-18T04:03:16.029Z,0
2023-01-18T04:03:57.013Z,0
2023-01-18T04:04:37.989Z,0
2023-01-18T04:05:18.999Z,0
2023-01-18T04:05:59.966Z,0
2023-01-18T04:06:41.066Z,0
2023-01-18T04:10:06.151Z,0
2023-01-18T04:10:47.192Z,0
2023-01-18T04:11:28.321Z,0
2023-01-18T04:12:09.320Z,0
2023-01-18T04:12:50.335Z,0
2023-01-18T04:16:15.697Z,0
2023-01-18T04:16:56.629Z,0
2023-01-18T04:18:18.900Z,0
2023-01-18T04:18:59.885Z,0
2023-01-18T04:19:40.893Z,0
2023-01-18T04:23:06.168Z,0
2023-01-18T04:23:47.107Z,0
2023-01-18T04:24:28.701Z,0
2023-01-18T04:25:50.821Z,0
2023-01-18T04:29:15.844Z,0
2023-01-18T04:29:56.790Z,0
2023-01-18T04:30:37.775Z,0
2023-01-18T04:31:18.900Z,0
2023-01-18T04:31:59.847Z,0
2023-01-18T04:36:05.919Z,0
2023-01-18T04:36:47.003Z,0
2023-01-18T04:37:28.069Z,0
2023-01-18T04:38:09.101Z,0
2023-01-18T04:38:50.062Z,0
2023-01-18T04:39:31.030Z,0
2023-01-18T04:42:56.541Z,0
2023-01-18T04:43:37.102Z,0
2023-01-18T04:44:18.092Z,0
2023-01-18T04:44:59.073Z,0
2023-01-18T04:45:40.192Z,0
2023-01-18T04:46:21.235Z,0
2023-01-18T04:49:46.157Z,0
2023-01-18T04:50:27.249Z,0
2023-01-18T04:51:08.230Z,0
2023-01-18T04:51:49.229Z,0
2023-01-18T04:52:30.219Z,0
2023-01-18T04:57:11.764Z,0
2023-01-18T04:57:52.075Z,0
2023-01-18T05:01:26.052Z,0
2023-01-18T05:02:06.626Z,0
2023-01-18T05:02:47.095Z,0
2023-01-18T05:03:27.571Z,0
2023-01-18T05:04:08.081Z,0
2023-01-18T05:04:48.611Z,0
2023-01-18T05:05:29.102Z,0
2023-01-18T05:06:09.653Z,0
2023-01-18T05:09:23.397Z,0
2023-01-18T05:10:03.995Z,0
2023-01-18T05:10:44.485Z,0
2023-01-18T05:11:24.980Z,0
2023-01-18T05:12:05.514Z,0
2023-01-18T05:12:46.016Z,0
2023-01-18T05:13:26.468Z,0
2023-01-18T05:14:06.985Z,0
2023-01-18T05:14:47.534Z,0
2023-01-18T05:15:28.104Z,0
2023-01-18T05:22:13.454Z,0
2023-01-18T05:22:54.012Z,0
2023-01-18T05:23:34.455Z,0
2023-01-18T05:24:14.990Z,0
2023-01-18T05:24:55.503Z,0
2023-01-18T05:25:35.959Z,0
2023-01-18T05:26:16.445Z,0
2023-01-18T05:26:56.912Z,0
2023-01-18T05:27:37.421Z,0
2023-01-18T05:28:17.919Z,0
2023-01-18T05:35:03.091Z,0
2023-01-18T05:35:43.580Z,0
2023-01-18T05:36:24.055Z,0
2023-01-18T05:37:04.559Z,0
2023-01-18T05:37:45.059Z,0
2023-01-18T05:38:25.532Z,0
2023-01-18T05:39:06.026Z,0
2023-01-18T05:39:46.563Z,0
2023-01-18T05:40:27.843Z,0
2023-01-18T05:46:33.245Z,0
2023-01-18T05:47:13.768Z,0
2023-01-18T05:47:54.237Z,0
2023-01-18T05:48:34.737Z,0
2023-01-18T05:49:15.214Z,0
2023-01-18T05:49:55.686Z,0
2023-01-18T05:50:36.207Z,0
2023-01-18T05:51:16.792Z,0
2023-01-18T05:51:57.207Z,0
2023-01-18T06:32:24.671Z,0
2023-01-18T06:33:05.438Z,0
2023-01-18T06:33:46.476Z,0
2023-01-18T06:34:30.185Z,0
2023-01-18T06:35:08.662Z,0
2023-01-18T06:37:53.229Z,0
2023-01-18T06:38:34.242Z,0
2023-01-18T06:39:15.246Z,0
2023-01-18T06:39:56.333Z,0
2023-01-18T06:40:37.314Z,0
2023-01-18T06:44:12.216Z,0
2023-01-18T06:44:54.252Z,0
2023-01-18T06:48:23.323Z,0
2023-01-18T06:49:04.602Z,0
2023-01-18T06:49:45.311Z,0
2023-01-18T06:50:26.032Z,0
2023-01-18T06:51:06.492Z,0
2023-01-18T06:51:47.822Z,0
2023-01-18T06:54:34.567Z,0
2023-01-18T06:55:21.791Z,0
2023-01-18T06:56:43.012Z,0
2023-01-18T06:57:26.247Z,0
2023-01-18T07:00:45.268Z,0
2023-01-18T07:01:25.855Z,0
2023-01-18T07:04:39.591Z,4
2023-01-18T07:08:15.287Z,8
2023-01-18T07:09:00.220Z,8
2023-01-18T07:09:40.556Z,4
2023-01-18T07:13:10.949Z,12
2023-01-18T07:13:53.938Z,12
2023-01-18T07:14:34.564Z,12
2023-01-18T07:15:21.426Z,12
2023-01-18T07:15:55.851Z,12
2023-01-18T07:20:40.500Z,24
2023-01-18T07:21:21.907Z,24
2023-01-18T07:22:02.430Z,24
2023-01-18T07:22:43.005Z,28
2023-01-18T07:23:23.719Z,32
2023-01-18T07:24:04.425Z,32
2023-01-18T07:28:11.092Z,44
2023-01-18T07:28:52.493Z,44
2023-01-18T07:29:33.237Z,48
2023-01-18T07:30:13.880Z,48
2023-01-18T07:30:54.433Z,52
2023-01-18T07:31:35.305Z,56
2023-01-18T07:37:37.076Z,80
2023-01-18T07:41:07.496Z,96
2023-01-18T07:41:48.080Z,100
2023-01-18T07:42:28.711Z,104
2023-01-18T07:43:09.343Z,108
2023-01-18T07:43:50.180Z,112
2023-01-18T07:44:30.695Z,116
2023-01-18T07:45:11.323Z,120
2023-01-18T07:45:51.960Z,128
2023-01-18T07:50:36.917Z,164
2023-01-18T07:51:17.615Z,168
2023-01-18T07:51:58.536Z,172
2023-01-18T07:52:39.252Z,176
2023-01-18T07:53:19.821Z,184
2023-01-18T07:54:41.075Z,192
2023-01-18T07:55:21.682Z,204
2023-01-18T07:56:02.392Z,208
2023-01-18T08:00:07.404Z,240
2023-01-18T08:00:48.139Z,244
2023-01-18T08:01:28.999Z,252
2023-01-18T08:02:09.513Z,260
2023-01-18T08:02:50.420Z,268
2023-01-18T08:03:31.307Z,272
2023-01-18T08:04:12.179Z,280
2023-01-18T08:08:57.137Z,320
2023-01-18T08:09:37.772Z,320
2023-01-18T08:10:18.614Z,328
2023-01-18T08:10:59.277Z,336
2023-01-18T08:11:39.960Z,340
2023-01-18T08:14:55.190Z,360
2023-01-18T08:15:35.005Z,360
2023-01-18T08:16:15.697Z,364
2023-01-18T08:16:56.182Z,372
2023-01-18T08:17:36.928Z,376
2023-01-18T08:18:17.592Z,380
2023-01-18T08:18:58.223Z,384
2023-01-18T08:22:13.362Z,412
2023-01-18T08:22:53.889Z,416
2023-01-18T08:23:34.794Z,424
2023-01-18T08:24:15.672Z,436
2023-01-18T08:24:56.737Z,444
2023-01-18T08:25:37.432Z,448
2023-01-18T08:33:48.336Z,520
2023-01-18T08:34:30.032Z,520
2023-01-18T08:35:11.238Z,528
2023-01-18T08:35:52.524Z,528
2023-01-18T08:37:57.187Z,532
2023-01-18T08:38:37.681Z,552
2023-01-18T08:39:18.776Z,572
2023-01-18T08:39:59.890Z,584
2023-01-18T08:40:41.241Z,592
2023-01-18T08:41:23.168Z,596
2023-01-18T08:45:04.232Z,612
2023-01-18T08:45:46.299Z,600
2023-01-18T08:46:27.871Z,596
2023-01-18T08:47:08.981Z,592
2023-01-18T08:48:34.119Z,592
2023-01-18T08:49:16.722Z,584
2023-01-18T08:49:59.576Z,580
2023-01-18T08:52:44.583Z,568
2023-01-18T08:54:09.656Z,576
2023-01-18T08:56:54.603Z,604
2023-01-18T09:00:05.339Z,648
2023-01-18T09:00:46.375Z,668
2023-01-18T09:01:27.098Z,680
2023-01-18T09:02:07.678Z,688
2023-01-18T09:02:48.498Z,684
2023-01-18T09:03:28.914Z,692
2023-01-18T09:04:10.189Z,704
2023-01-18T09:04:50.870Z,704
2023-01-18T09:08:55.670Z,620
2023-01-18T09:09:36.718Z,624
2023-01-18T09:10:17.850Z,632
2023-01-18T09:11:00.007Z,632
2023-01-18T09:11:41.046Z,636
2023-01-18T09:15:46.418Z,676
2023-01-18T09:16:28.827Z,692
2023-01-18T09:17:10.009Z,708
2023-01-18T09:20:24.202Z,796
2023-01-18T09:21:04.959Z,812
2023-01-18T09:21:45.642Z,820
2023-01-18T09:22:26.217Z,816
2023-01-18T09:24:54.825Z,816
2023-01-18T09:25:35.557Z,808
2023-01-18T09:26:16.079Z,812
2023-01-18T09:26:56.577Z,812
2023-01-18T09:27:37.067Z,812
2023-01-18T09:28:17.597Z,816
2023-01-18T09:28:58.099Z,812
2023-01-18T09:29:38.660Z,828
2023-01-18T09:30:20.033Z,836
2023-01-18T09:36:22.442Z,868
2023-01-18T09:37:03.696Z,864
2023-01-18T09:37:44.248Z,852
2023-01-18T09:38:24.760Z,852
2023-01-18T09:41:43.918Z,856
2023-01-18T09:42:25.028Z,852
2023-01-18T09:43:05.611Z,848
2023-01-18T09:46:36.012Z,840
2023-01-18T09:47:16.606Z,836
2023-01-18T09:47:57.144Z,836
2023-01-18T09:48:37.684Z,832
2023-01-18T09:49:18.192Z,832
2023-01-18T09:50:41.104Z,840
2023-01-18T09:54:45.322Z,904
2023-01-18T09:55:25.856Z,908
2023-01-18T09:56:06.459Z,912
2023-01-18T09:56:47.002Z,924
2023-01-18T09:57:27.495Z,940
2023-01-18T09:58:07.971Z,944
2023-01-18T09:58:48.525Z,928
2023-01-18T09:59:29.035Z,924
2023-01-18T10:00:09.552Z,932
2023-01-18T10:00:50.206Z,944
2023-01-18T10:01:30.713Z,948
2023-01-18T10:06:23.627Z,928
2023-01-18T10:07:03.893Z,936
2023-01-18T10:07:44.374Z,948
2023-01-18T10:08:25.019Z,960
2023-01-18T10:09:05.548Z,960
2023-01-18T10:09:46.099Z,964
2023-01-18T10:10:26.641Z,960
2023-01-18T10:11:09.691Z,964
2023-01-18T10:17:12.986Z,1004
2023-01-18T10:17:53.525Z,1016
2023-01-18T10:18:34.074Z,1024
2023-01-18T10:19:14.614Z,1020
2023-01-18T10:19:55.092Z,1020
2023-01-18T10:20:35.612Z,1008
2023-01-18T10:21:16.176Z,1000
2023-01-18T10:21:56.667Z,988
2023-01-18T10:22:37.181Z,976
2023-01-18T10:23:17.731Z,976
2023-01-18T10:26:31.869Z,956
2023-01-18T10:27:12.595Z,952
2023-01-18T10:27:53.122Z,948
2023-01-18T10:28:33.658Z,944
2023-01-18T10:29:14.171Z,940
2023-01-18T10:29:54.695Z,940
2023-01-18T10:30:35.222Z,936
2023-01-18T10:31:15.814Z,924
2023-01-18T10:31:56.316Z,916
2023-01-18T10:37:21.935Z,920
2023-01-18T10:38:02.511Z,912
2023-01-18T10:38:43.082Z,912
2023-01-18T10:39:23.791Z,912
2023-01-18T10:40:45.030Z,916
2023-01-18T10:41:25.573Z,920
2023-01-18T10:42:06.415Z,924
2023-01-18T10:48:51.792Z,912
2023-01-18T10:49:32.459Z,924
2023-01-18T10:50:13.011Z,928
2023-01-18T10:50:53.676Z,936
2023-01-18T10:51:34.127Z,936
2023-01-18T10:54:49.803Z,940
2023-01-18T10:55:30.294Z,944
2023-01-18T10:56:10.925Z,940
2023-01-18T10:56:51.496Z,932
2023-01-18T10:58:13.708Z,920
2023-01-18T10:58:54.288Z,912
2023-01-18T11:05:00.019Z,940
2023-01-18T11:05:40.556Z,940
2023-01-18T11:06:21.145Z,932
2023-01-18T11:07:03.719Z,964
2023-01-18T11:07:44.179Z,984
2023-01-18T11:08:24.751Z,988
2023-01-18T11:13:10.069Z,976
2023-01-18T11:13:51.417Z,968
2023-01-18T11:14:32.059Z,976
2023-01-18T11:17:50.879Z,940
2023-01-18T11:18:31.527Z,924
2023-01-18T11:19:13.047Z,908
2023-01-18T11:19:53.490Z,896
2023-01-18T11:23:57.927Z,936
2023-01-18T11:24:38.308Z,952
2023-01-18T11:25:19.317Z,932
2023-01-18T11:26:00.900Z,932
2023-01-18T11:27:24.556Z,936
2023-01-18T11:28:04.817Z,940
2023-01-18T11:28:45.627Z,940
2023-01-18T11:29:28.553Z,932
2023-01-18T11:30:07.192Z,936
2023-01-18T11:30:48.512Z,928
2023-01-18T11:31:30.698Z,912
2023-01-18T11:34:14.877Z,844
2023-01-18T11:34:55.834Z,808
2023-01-18T11:35:36.494Z,804
2023-01-18T11:36:17.668Z,792
2023-01-18T11:36:58.155Z,784
2023-01-18T11:37:38.667Z,816
2023-01-18T11:38:19.226Z,820
2023-01-18T11:41:04.975Z,804
2023-01-18T11:41:46.256Z,816
2023-01-18T11:44:46.325Z,824
2023-01-18T11:45:27.732Z,820
2023-01-18T11:46:08.837Z,800
2023-01-18T11:49:44.351Z,748
2023-01-18T11:50:25.064Z,760
2023-01-18T11:51:05.710Z,724
2023-01-18T11:51:46.202Z,696
2023-01-18T11:52:26.865Z,720
2023-01-18T11:53:07.426Z,760
2023-01-18T11:53:48.915Z,776
2023-01-18T12:32:49.668Z,708
2023-01-18T12:33:42.208Z,712
2023-01-18T12:34:08.948Z,716
2023-01-18T12:34:49.613Z,716
2023-01-18T12:35:30.162Z,720
2023-01-18T12:36:10.645Z,720
2023-01-18T12:36:51.236Z,716
2023-01-18T12:37:31.732Z,712
2023-01-18T12:38:13.671Z,716
2023-01-18T12:43:39.356Z,712
2023-01-18T12:44:19.924Z,708
2023-01-18T12:47:59.929Z,700
2023-01-18T12:48:40.577Z,696
2023-01-18T12:49:21.831Z,700
2023-01-18T12:50:02.812Z,696
2023-01-18T12:50:43.839Z,696
2023-01-18T12:54:09.800Z,688
2023-01-18T12:54:50.848Z,688
2023-01-18T12:55:31.900Z,680
2023-01-18T12:56:12.912Z,668
2023-01-18T12:56:54.047Z,668
2023-01-18T13:00:19.402Z,684
2023-01-18T13:01:00.606Z,680
2023-01-18T13:01:41.592Z,676
2023-01-18T13:03:04.112Z,672
2023-01-18T13:06:29.456Z,668
2023-01-18T13:07:10.530Z,668
2023-01-18T13:07:51.602Z,668
2023-01-18T13:08:32.611Z,668
2023-01-18T13:09:13.573Z,664
2023-01-18T13:12:39.191Z,660
2023-01-18T13:13:20.206Z,660
2023-01-18T13:14:01.379Z,656
2023-01-18T13:14:42.469Z,660
2023-01-18T13:15:23.463Z,652
2023-01-18T13:18:37.297Z,648
2023-01-18T13:19:17.915Z,648
2023-01-18T13:19:59.448Z,644
2023-01-18T13:20:38.926Z,640
2023-01-18T13:21:19.521Z,640
2023-01-18T13:21:59.959Z,636
2023-01-18T13:22:40.521Z,640
2023-01-18T13:23:21.085Z,632
2023-01-18T13:24:01.616Z,628
2023-01-18T13:24:42.149Z,620
2023-01-18T13:29:27.001Z,588
2023-01-18T13:30:07.521Z,588
2023-01-18T13:30:48.185Z,588
2023-01-18T13:31:29.780Z,584
2023-01-18T13:34:24.949Z,576
2023-01-18T13:35:19.406Z,572
2023-01-18T13:35:47.225Z,568
2023-01-18T13:39:02.728Z,548
2023-01-18T13:39:44.059Z,544
2023-01-18T13:40:24.644Z,544
2023-01-18T13:41:05.360Z,540
2023-01-18T13:41:46.843Z,536
2023-01-18T13:48:39.405Z,528
2023-01-18T13:49:35.626Z,532
2023-01-18T13:50:00.531Z,532
2023-01-18T13:50:41.006Z,532
2023-01-18T13:51:21.662Z,532
2023-01-18T13:52:02.205Z,524
2023-01-18T13:52:42.818Z,532
2023-01-18T13:53:23.357Z,532
2023-01-18T13:54:03.861Z,532
2023-01-18T13:54:46.649Z,532
2023-01-18T14:00:12.167Z,528
2023-01-18T14:00:51.041Z,520
2023-01-18T14:01:31.613Z,516
2023-01-18T14:02:14.035Z,504
2023-01-18T14:02:54.574Z,468
2023-01-18T14:07:39.749Z,452
2023-01-18T14:08:20.294Z,480
2023-01-18T14:09:00.870Z,448
2023-01-18T14:09:41.314Z,468
2023-01-18T14:10:21.844Z,484
2023-01-18T14:11:02.400Z,488
2023-01-18T14:11:43.002Z,492
2023-01-18T14:15:22.364Z,524
2023-01-18T14:16:03.208Z,520
2023-01-18T14:16:43.703Z,508
2023-01-18T14:17:25.380Z,504
2023-01-18T14:18:04.795Z,504
2023-01-18T14:18:45.291Z,508
2023-01-18T14:19:25.859Z,508
2023-01-18T14:20:06.463Z,508
2023-01-18T14:23:21.974Z,484
2023-01-18T14:24:01.679Z,488
2023-01-18T14:24:42.213Z,484
2023-01-18T14:25:22.794Z,488
2023-01-18T14:26:03.356Z,492
2023-01-18T14:26:43.878Z,496
2023-01-18T14:27:24.456Z,516
2023-01-18T14:28:05.021Z,512
2023-01-18T14:28:45.603Z,524
2023-01-18T14:29:26.142Z,536
2023-01-18T14:35:30.928Z,444
2023-01-18T14:36:11.560Z,432
2023-01-18T14:36:52.117Z,428
2023-01-18T14:37:32.806Z,428
2023-01-18T14:38:17.683Z,428
2023-01-18T14:38:53.941Z,424
2023-01-18T14:39:34.440Z,424
2023-01-18T14:40:15.001Z,420
2023-01-18T14:40:55.639Z,420
2023-01-18T14:41:36.132Z,416
2023-01-18T14:47:41.120Z,392
2023-01-18T14:48:21.668Z,392
2023-01-18T14:49:02.183Z,396
2023-01-18T14:49:42.731Z,392
2023-01-18T14:50:23.320Z,392
2023-01-18T14:51:04.001Z,392
2023-01-18T14:54:18.841Z,392
2023-01-18T14:54:59.399Z,388
2023-01-18T14:55:39.917Z,388
2023-01-18T14:56:21.309Z,388
2023-01-18T14:57:01.810Z,388
2023-01-18T14:57:43.264Z,388
2023-01-18T14:58:23.747Z,384
2023-01-18T15:04:28.592Z,356
2023-01-18T15:05:09.097Z,364
2023-01-18T15:05:49.701Z,376
2023-01-18T15:06:30.187Z,396
2023-01-18T15:07:11.575Z,412
2023-01-18T15:07:53.059Z,432
2023-01-18T15:08:33.521Z,444
2023-01-18T15:13:55.816Z,512
2023-01-18T15:14:37.005Z,492
2023-01-18T15:15:18.141Z,500
2023-01-18T15:16:01.083Z,516
2023-01-18T15:16:40.529Z,516
2023-01-18T15:20:05.699Z,540
2023-01-18T15:22:18.821Z,492
2023-01-18T15:22:59.777Z,504
2023-01-18T15:23:39.927Z,516
2023-01-18T15:24:20.539Z,520
2023-01-18T15:25:01.096Z,512
2023-01-18T15:25:41.547Z,508
2023-01-18T15:26:22.124Z,508
2023-01-18T15:28:37.018Z,536
2023-01-18T15:29:17.656Z,520
2023-01-18T15:29:58.163Z,484
2023-01-18T15:30:38.779Z,440
2023-01-18T15:31:19.469Z,424
2023-01-18T15:31:59.859Z,428
2023-01-18T15:32:40.444Z,416
2023-01-18T15:39:26.055Z,256
2023-01-18T15:41:38.948Z,196
2023-01-18T15:42:19.480Z,188
2023-01-18T15:42:59.997Z,180
2023-01-18T15:43:40.478Z,180
2023-01-18T15:44:20.971Z,164
2023-01-18T15:45:01.603Z,148
2023-01-18T15:45:41.975Z,128
2023-01-18T15:46:22.517Z,112
2023-01-18T15:47:03.033Z,100
2023-01-18T15:50:40.839Z,72
2023-01-18T15:51:21.590Z,68
2023-01-18T15:52:02.138Z,64
2023-01-18T15:52:44.896Z,60
2023-01-18T15:58:07.480Z,40
2023-01-18T15:58:47.978Z,40
2023-01-18T16:00:09.058Z,28
2023-01-18T16:00:49.593Z,28
2023-01-18T16:01:30.167Z,28
2023-01-18T16:02:10.722Z,28
2023-01-18T16:02:51.246Z,24
2023-01-18T16:06:12.294Z,16
2023-01-18T16:06:52.815Z,12
2023-01-18T16:07:34.086Z,12
2023-01-18T16:08:15.989Z,12
2023-01-18T16:08:55.154Z,12
2023-01-18T16:09:35.728Z,8
2023-01-18T16:10:16.219Z,8
2023-01-18T16:13:46.380Z,4
2023-01-18T16:14:26.865Z,4
2023-01-18T16:15:08.745Z,4
2023-01-18T16:15:47.887Z,4
2023-01-18T16:16:28.418Z,4
2023-01-18T16:17:08.914Z,4
2023-01-18T16:17:49.610Z,0
2023-01-18T16:18:30.107Z,4
2023-01-18T16:19:10.634Z,4
2023-01-18T16:19:51.155Z,0
2023-01-18T16:26:36.468Z,0
2023-01-18T16:27:16.923Z,0
2023-01-18T16:27:57.757Z,0
2023-01-18T16:28:37.887Z,0
2023-01-18T16:29:18.414Z,0
2023-01-18T16:29:58.916Z,0
2023-01-18T16:31:19.894Z,0
2023-01-18T16:32:00.413Z,0
2023-01-18T16:32:40.910Z,0
2023-01-18T16:39:26.025Z,0
2023-01-18T16:40:06.528Z,0
2023-01-18T16:40:47.002Z,0
2023-01-18T16:41:27.501Z,0
2023-01-18T16:42:08.048Z,0
2023-01-18T16:42:48.566Z,0
2023-01-18T16:43:29.050Z,0
2023-01-18T16:44:09.542Z,0
2023-01-18T16:44:50.128Z,0
2023-01-18T16:45:30.530Z,0
2023-01-18T16:46:11.071Z,0
2023-01-18T16:52:56.298Z,0
2023-01-18T16:53:36.835Z,0
2023-01-18T16:54:17.390Z,0
2023-01-18T16:54:57.906Z,0
2023-01-18T16:55:38.386Z,0
2023-01-18T16:56:18.888Z,0
2023-01-18T16:56:59.410Z,0
2023-01-18T16:57:39.964Z,0
2023-01-18T16:58:20.492Z,0
2023-01-18T17:00:33.300Z,0
2023-01-18T17:01:14.073Z,0
2023-01-18T17:01:54.563Z,0
2023-01-18T17:02:34.989Z,0
2023-01-18T17:03:15.382Z,0
2023-01-18T17:03:55.925Z,0
2023-01-18T17:04:37.249Z,0
2023-01-18T17:05:17.658Z,0
2023-01-18T17:12:03.228Z,0
2023-01-18T17:12:43.733Z,0
2023-01-18T17:14:04.697Z,0
2023-01-18T17:14:45.211Z,0
2023-01-18T17:15:25.728Z,0
2023-01-18T17:16:06.270Z,0
2023-01-18T17:16:46.779Z,0
2023-01-18T17:17:27.958Z,0
2023-01-18T17:24:53.463Z,0
2023-01-18T17:25:33.942Z,0
2023-01-18T17:26:14.451Z,0
2023-01-18T17:26:54.964Z,0
2023-01-18T17:27:35.737Z,0
2023-01-18T17:28:15.959Z,0
2023-01-18T17:28:56.488Z,0
2023-01-18T17:32:28.991Z,0
2023-01-18T17:33:06.333Z,0
2023-01-18T17:33:46.783Z,0
2023-01-18T17:34:28.329Z,0
2023-01-18T17:35:07.780Z,0
2023-01-18T17:35:48.284Z,0
2023-01-18T17:36:28.817Z,0
2023-01-18T17:37:09.310Z,0
2023-01-18T17:37:51.896Z,0
2023-01-18T17:39:10.765Z,0
2023-01-18T17:46:01.355Z,0
2023-01-18T17:46:36.677Z,0
2023-01-18T17:47:17.046Z,0
2023-01-18T17:47:57.587Z,0
2023-01-18T17:49:18.510Z,0
2023-01-18T17:49:59.036Z,0
2023-01-18T17:50:39.562Z,0
2023-01-18T17:51:20.077Z,0
2023-01-18T17:52:00.586Z,0
2023-01-18T18:34:37.696Z,0
2023-01-18T18:35:25.300Z,0
2023-01-18T18:35:58.607Z,0
2023-01-18T18:36:39.122Z,0
2023-01-18T18:37:19.604Z,0
2023-01-18T18:38:00.101Z,0
2023-01-18T18:38:40.570Z,0
2023-01-18T18:39:21.049Z,0
2023-01-18T18:40:01.609Z,0
2023-01-18T18:40:42.120Z,0
2023-01-18T18:41:22.599Z,0
2023-01-18T18:48:07.598Z,0
2023-01-18T18:48:48.123Z,0
2023-01-18T18:49:28.604Z,0
2023-01-18T18:50:09.165Z,0
2023-01-18T18:51:30.098Z,0
2023-01-18T18:52:10.632Z,0
2023-01-18T18:52:51.172Z,0
2023-01-18T18:53:38.360Z,0
2023-01-18T18:54:12.171Z,0
2023-01-18T18:54:53.422Z,0
2023-01-18T19:00:57.863Z,0
2023-01-18T19:01:38.471Z,0
2023-01-18T19:02:18.954Z,0
2023-01-18T19:02:59.467Z,0
2023-01-18T19:03:39.832Z,0
2023-01-18T19:04:21.076Z,0
2023-01-18T19:05:01.577Z,0
2023-01-18T19:05:42.044Z,0
2023-01-18T19:06:22.536Z,0
2023-01-18T19:13:07.491Z,0
2023-01-18T19:13:49.459Z,0
2023-01-18T19:14:28.535Z,0
2023-01-18T19:15:09.047Z,0
2023-01-18T19:15:49.544Z,0
2023-01-18T19:16:30.043Z,0
2023-01-18T19:17:13.668Z,0
2023-01-18T19:17:50.990Z,0
2023-01-18T19:19:12.004Z,0
2023-01-18T19:19:52.524Z,0
2023-01-18T19:26:37.638Z,0
2023-01-18T19:27:18.084Z,0
2023-01-18T19:27:58.542Z,0
2023-01-18T19:28:39.074Z,0
2023-01-18T19:29:19.564Z,0
2023-01-18T19:30:00.032Z,0
2023-01-18T19:30:40.546Z,0
2023-01-18T19:31:21.098Z,0
2023-01-18T19:32:01.539Z,0
2023-01-18T19:32:42.013Z,0
2023-01-18T19:33:22.527Z,0
2023-01-18T19:40:07.506Z,0
2023-01-18T19:40:47.987Z,0
2023-01-18T19:41:28.503Z,0
2023-01-18T19:42:09.023Z,0
2023-01-18T19:42:49.480Z,0
2023-01-18T19:43:29.990Z,0
2023-01-18T19:44:10.508Z,0
2023-01-18T19:44:52.013Z,0
2023-01-18T19:45:31.487Z,0
2023-01-18T19:46:12.020Z,0
2023-01-18T19:46:52.486Z,0
2023-01-18T19:53:37.430Z,0
2023-01-18T19:54:17.925Z,0
2023-01-18T19:54:58.406Z,0
2023-01-18T19:55:38.912Z,0
2023-01-18T19:56:59.919Z,0
2023-01-18T19:57:40.397Z,0
2023-01-18T19:58:21.052Z,0
2023-01-18T19:59:01.508Z,0
2023-01-18T19:59:42.069Z,0
2023-01-18T20:00:22.533Z,0
2023-01-18T20:07:07.603Z,0
2023-01-18T20:07:48.143Z,0
2023-01-18T20:08:28.626Z,0
2023-01-18T20:09:18.844Z,0
2023-01-18T20:09:49.621Z,0
2023-01-18T20:10:30.080Z,0
2023-01-18T20:11:10.587Z,0
2023-01-18T20:11:51.085Z,0
2023-01-18T20:12:31.602Z,0
2023-01-18T20:13:12.159Z,0
2023-01-18T20:13:52.658Z,0
2023-01-18T20:20:37.650Z,0
2023-01-18T20:21:18.183Z,0
2023-01-18T20:21:58.647Z,0
2023-01-18T20:22:39.191Z,0
2023-01-18T20:23:19.715Z,0
2023-01-18T20:24:40.620Z,0
2023-01-18T20:25:21.158Z,0
2023-01-18T20:26:01.653Z,0
2023-01-18T20:26:42.362Z,0
2023-01-18T20:27:22.648Z,0